Time;durP1;ratioP1;P1;durP2;ratioP2;P2;SDS_P1;SDS_P2;PMS_P1;PMS_P2;Temp;Humidity;BMP_temperature;BMP_pressure;BME280_temperature;BME280_humidity;BME280_pressure;Samples;Min_cycle;Max_cycle;Signal;HPM_P1;HPM_P2
2023/11/05 00:02:17;;;;;;;24.10;9.40;;;;;;;22.86;60.17;97743.92;107889;1255;73868;-66
2023/11/05 00:04:44;;;;;;;27.60;9.40;;;;;;;23.10;59.67;97742.30;107938;1254;70042;-66
2023/11/05 00:07:12;;;;;;;19.80;7.10;;;;;;;23.28;59.31;97742.02;107951;1254;73531;-67
2023/11/05 00:09:39;;;;;;;22.00;9.20;;;;;;;22.89;60.71;97744.46;107895;1260;60974;-66
2023/11/05 00:12:07;;;;;;;25.20;10.20;;;;;;;23.20;60.09;97737.70;107890;1254;60314;-66
2023/11/05 00:14:34;;;;;;;23.10;9.10;;;;;;;23.27;60.18;97743.24;107716;1255;72676;-67
2023/11/05 00:17:01;;;;;;;24.40;9.90;;;;;;;23.44;59.57;97747.33;107846;1254;72173;-67
2023/11/05 00:19:29;;;;;;;24.30;9.60;;;;;;;23.51;59.43;97749.48;107887;1254;72714;-66
2023/11/05 00:21:56;;;;;;;25.10;10.10;;;;;;;23.27;60.10;97743.21;107844;1257;60423;-66
2023/11/05 00:24:24;;;;;;;23.70;9.20;;;;;;;23.53;59.37;97734.59;107848;1260;60452;-66
2023/11/05 00:26:51;;;;;;;28.40;11.10;;;;;;;23.49;59.48;97729.91;107844;1255;74206;-66
2023/11/05 00:29:18;;;;;;;22.50;9.20;;;;;;;23.65;58.79;97724.23;107859;1254;70284;-67
2023/11/05 00:31:46;;;;;;;29.20;11.90;;;;;;;23.53;59.20;97709.33;107852;1254;72740;-66
2023/11/05 00:34:13;;;;;;;24.00;11.40;;;;;;;23.92;58.13;97704.23;107911;1256;60505;-66
2023/11/05 00:36:41;;;;;;;25.40;10.90;;;;;;;24.23;56.95;97687.13;107620;1254;207798;-68
2023/11/05 00:41:12;;;;;;;31.40;11.10;;;;;;;20.84;68.19;97696.61;104802;1294;599813;-67
2023/11/05 00:43:38;;;;;;;22.40;9.80;;;;;;;21.88;64.80;97691.19;107321;1266;59296;-67
2023/11/05 00:46:05;;;;;;;29.30;9.70;;;;;;;21.60;65.57;97680.98;107289;1269;59253;-66
2023/11/05 00:48:32;;;;;;;19.00;8.60;;;;;;;21.43;66.03;97680.18;107185;1266;59255;-68
2023/11/05 00:50:59;;;;;;;27.50;8.90;;;;;;;21.75;65.45;97683.82;108183;1253;59215;-66
2023/11/05 00:53:25;;;;;;;24.10;8.70;;;;;;;21.66;65.53;97679.17;107910;1251;201210;-69
2023/11/05 00:55:54;;;;;;;21.80;8.70;;;;;;;21.39;66.48;97679.47;108343;1251;62028;-66
2023/11/05 00:58:21;;;;;;;21.30;9.10;;;;;;;21.18;67.27;97689.25;108302;1251;61118;-68
2023/11/05 01:00:47;;;;;;;25.40;7.70;;;;;;;21.47;66.23;97689.20;108308;1251;71948;-67
2023/11/05 01:03:14;;;;;;;12.70;6.20;;;;;;;21.44;66.25;97680.45;108226;1251;70124;-66
2023/11/05 01:05:41;;;;;;;19.20;6.50;;;;;;;21.42;66.22;97680.34;108294;1251;72068;-66
2023/11/05 01:08:07;;;;;;;16.10;6.80;;;;;;;21.43;66.14;97672.52;108255;1251;60541;-67
2023/11/05 01:10:34;;;;;;;19.60;6.70;;;;;;;21.55;65.55;97666.23;108225;1251;59403;-68
2023/11/05 01:13:00;;;;;;;15.40;6.40;;;;;;;21.65;65.35;97656.84;108155;1254;59654;-66
2023/11/05 01:15:27;;;;;;;19.30;6.20;;;;;;;21.98;63.95;97650.25;108300;1254;59125;-66
2023/11/05 01:17:53;;;;;;;16.20;6.10;;;;;;;21.84;64.11;97648.73;108291;1252;72475;-65
2023/11/05 01:20:20;;;;;;;21.20;6.30;;;;;;;21.95;63.50;97647.81;108254;1254;62008;-67
2023/11/05 01:22:47;;;;;;;19.30;5.60;;;;;;;21.92;63.56;97638.50;108133;1254;59707;-65
2023/11/05 01:25:13;;;;;;;12.20;4.50;;;;;;;21.88;63.29;97642.27;108251;1253;71831;-66
2023/11/05 01:27:40;;;;;;;16.70;5.50;;;;;;;22.09;62.58;97629.83;108226;1255;69026;-66
2023/11/05 01:30:08;;;;;;;15.40;5.80;;;;;;;22.14;62.02;97626.67;108228;1252;72484;-66
2023/11/05 01:32:35;;;;;;;13.90;5.60;;;;;;;22.00;62.51;97630.23;108072;1252;61860;-68
2023/11/05 01:35:03;;;;;;;19.60;6.30;;;;;;;21.88;63.12;97627.55;108189;1253;59718;-66
2023/11/05 01:37:30;;;;;;;16.90;6.00;;;;;;;21.98;63.01;97626.16;108259;1255;72978;-67
2023/11/05 01:39:57;;;;;;;18.30;6.40;;;;;;;21.86;63.61;97635.52;108226;1253;70410;-66
2023/11/05 01:42:24;;;;;;;14.00;6.20;;;;;;;21.86;63.69;97625.00;108235;1253;72481;-65
2023/11/05 01:44:51;;;;;;;14.40;5.50;;;;;;;21.70;64.46;97645.55;108065;1258;60102;-67
2023/11/05 01:47:17;;;;;;;14.10;5.30;;;;;;;21.65;64.76;97631.16;108266;1253;59110;-66
2023/11/05 01:49:44;;;;;;;18.30;7.50;;;;;;;20.95;67.35;97637.74;108168;1253;59464;-66
2023/11/05 01:52:11;;;;;;;16.70;6.90;;;;;;;21.24;66.72;97628.16;108197;1254;70194;-65
2023/11/05 01:54:37;;;;;;;19.90;8.90;;;;;;;21.11;67.47;97629.55;108009;1254;72700;-66
2023/11/05 01:57:04;;;;;;;16.50;6.00;;;;;;;20.84;68.39;97634.33;108238;1253;61807;-66
2023/11/05 01:59:32;;;;;;;14.50;6.90;;;;;;;20.82;68.99;97636.29;108078;1254;60321;-65
2023/11/05 02:02:00;;;;;;;19.00;6.40;;;;;;;20.81;69.24;97644.95;108046;1253;73616;-66
2023/11/05 02:04:26;;;;;;;10.60;4.60;;;;;;;21.01;68.45;97658.05;108097;1254;70278;-66
2023/11/05 02:06:53;;;;;;;5.60;3.00;;;;;;;20.82;69.54;97730.07;108083;1253;71652;-65
2023/11/05 02:09:21;;;;;;;5.70;1.10;;;;;;;20.54;65.33;97766.05;108242;1253;62145;-65
2023/11/05 02:11:47;;;;;;;0.80;0.50;;;;;;;19.89;61.24;97790.45;108081;1252;59599;-67
2023/11/05 02:14:14;;;;;;;4.80;1.60;;;;;;;19.67;59.94;97786.44;108113;1252;59651;-65
2023/11/05 02:16:40;;;;;;;0.60;0.50;;;;;;;19.56;60.01;97774.34;108102;1254;59109;-65
2023/11/05 02:19:07;;;;;;;2.00;0.90;;;;;;;19.28;60.19;97763.05;108034;1253;59505;-66
2023/11/05 02:21:37;;;;;;;2.30;0.60;;;;;;;19.10;60.40;97768.40;108239;1254;60277;-65
2023/11/05 02:24:04;;;;;;;1.10;0.50;;;;;;;18.99;60.36;97779.09;108166;1252;59400;-65
2023/11/05 02:26:31;;;;;;;1.90;0.80;;;;;;;18.91;60.16;97783.45;108234;1252;72720;-65
2023/11/05 02:28:58;;;;;;;4.10;1.50;;;;;;;18.90;59.74;97800.94;108057;1254;59593;-67
2023/11/05 02:31:24;;;;;;;1.20;0.60;;;;;;;18.86;59.68;97820.04;108136;1254;59157;-65
2023/11/05 02:33:51;;;;;;;2.00;0.60;;;;;;;18.78;59.83;97828.43;108045;1254;59519;-66
2023/11/05 02:36:18;;;;;;;1.90;0.50;;;;;;;18.82;59.63;97833.44;108125;1253;59770;-64
2023/11/05 02:38:45;;;;;;;0.90;0.50;;;;;;;18.69;59.66;97829.87;108281;1252;71917;-61
2023/11/05 02:41:12;;;;;;;1.20;0.90;;;;;;;18.68;59.51;97838.55;108340;1253;70028;-65
2023/11/05 02:43:39;;;;;;;0.70;0.70;;;;;;;18.56;59.64;97841.19;108218;1253;72710;-65
2023/11/05 02:46:06;;;;;;;1.00;0.90;;;;;;;18.53;59.70;97845.82;108241;1253;62062;-65
2023/11/05 02:48:33;;;;;;;1.70;0.60;;;;;;;18.46;59.88;97860.96;108164;1254;59450;-67
2023/11/05 02:51:00;;;;;;;0.70;0.70;;;;;;;18.26;60.34;97858.06;108238;1253;72884;-65
2023/11/05 02:53:27;;;;;;;0.70;0.70;;;;;;;18.05;60.90;97867.20;108123;1256;59481;-66
2023/11/05 02:55:53;;;;;;;2.40;0.60;;;;;;;18.07;60.73;97865.67;108112;1254;72078;-65
2023/11/05 02:58:20;;;;;;;0.90;0.70;;;;;;;17.99;60.84;97863.52;108103;1257;59186;-65
2023/11/05 03:00:46;;;;;;;1.60;0.70;;;;;;;18.09;60.74;97875.80;108255;1256;59570;-66
2023/11/05 03:03:13;;;;;;;0.70;0.60;;;;;;;18.28;60.23;97885.19;108305;1252;59488;-65
2023/11/05 03:05:43;;;;;;;1.70;0.80;;;;;;;18.17;60.10;97899.96;108258;1254;70322;-65
2023/11/05 03:08:10;;;;;;;0.70;0.70;;;;;;;18.27;59.96;97903.22;108290;1254;72651;-65
2023/11/05 03:10:37;;;;;;;1.60;1.30;;;;;;;18.29;59.59;97909.63;108258;1254;61639;-66
2023/11/05 03:13:03;;;;;;;1.30;1.00;;;;;;;18.34;59.41;97918.52;108197;1252;60347;-66
2023/11/05 03:15:31;;;;;;;2.40;1.30;;;;;;;18.23;59.61;97931.02;108194;1254;73018;-65
2023/11/05 03:17:58;;;;;;;2.70;1.40;;;;;;;18.08;59.80;97937.76;108234;1254;59435;-64
2023/11/05 03:20:24;;;;;;;2.50;1.00;;;;;;;18.16;59.64;97946.80;108183;1254;71776;-66
2023/11/05 03:22:51;;;;;;;3.00;1.10;;;;;;;18.14;59.63;97955.67;108214;1254;61759;-66
2023/11/05 03:25:18;;;;;;;1.60;1.00;;;;;;;18.23;59.32;97966.15;108226;1254;60166;-65
2023/11/05 03:27:44;;;;;;;0.70;0.70;;;;;;;18.29;59.11;97978.52;108187;1253;72896;-66
2023/11/05 03:30:12;;;;;;;2.30;1.30;;;;;;;18.25;59.23;97986.97;108213;1254;70173;-67
2023/11/05 03:32:40;;;;;;;0.70;0.70;;;;;;;18.13;59.56;97999.52;108176;1254;70476;-67
2023/11/05 03:35:09;;;;;;;4.60;1.10;;;;;;;18.15;59.47;98018.48;108162;1253;62168;-67
2023/11/05 03:37:36;;;;;;;5.00;1.50;;;;;;;18.10;59.66;98031.20;108222;1252;59412;-66
2023/11/05 03:40:04;;;;;;;3.20;1.20;;;;;;;18.21;59.45;98052.80;108170;1256;73432;-66
2023/11/05 03:42:31;;;;;;;4.10;2.10;;;;;;;18.09;59.73;98072.02;108269;1253;70339;-66
2023/11/05 03:44:57;;;;;;;3.20;1.60;;;;;;;18.01;60.03;98081.13;108208;1254;72533;-66
2023/11/05 03:47:24;;;;;;;1.70;1.40;;;;;;;17.90;60.46;98084.60;108103;1254;59612;-66
2023/11/05 03:49:53;;;;;;;2.90;1.70;;;;;;;17.81;60.69;98097.86;108137;1252;60381;-66
2023/11/05 03:52:20;;;;;;;2.00;1.30;;;;;;;17.77;60.75;98112.81;108259;1253;74182;-66
2023/11/05 03:54:46;;;;;;;4.70;1.60;;;;;;;17.63;61.07;98117.52;108227;1254;70172;-67
2023/11/05 03:57:12;;;;;;;3.00;1.70;;;;;;;17.87;60.50;98121.63;108017;1254;59538;-66
2023/11/05 03:59:39;;;;;;;2.10;1.60;;;;;;;18.01;59.93;98130.31;108199;1252;59621;-67
2023/11/05 04:02:06;;;;;;;1.60;1.50;;;;;;;17.64;60.70;98132.58;108301;1254;59477;-65
2023/11/05 04:04:32;;;;;;;2.00;1.60;;;;;;;17.99;59.92;98131.08;108342;1252;73181;-67
2023/11/05 04:07:03;;;;;;;2.60;2.00;;;;;;;17.86;60.09;98140.50;108277;1252;70114;-66
2023/11/05 04:09:30;;;;;;;4.50;1.70;;;;;;;17.51;60.86;98151.19;108278;1254;72657;-66
2023/11/05 04:11:56;;;;;;;2.10;1.50;;;;;;;17.17;61.67;98157.45;108188;1254;59585;-66
2023/11/05 04:14:22;;;;;;;3.20;1.60;;;;;;;17.34;61.00;98156.21;108211;1254;59091;-67
2023/11/05 04:16:49;;;;;;;2.70;1.80;;;;;;;17.55;60.46;98158.30;108230;1253;59481;-67
2023/11/05 04:19:15;;;;;;;5.70;1.70;;;;;;;17.46;60.65;98168.13;108304;1256;59611;-66
2023/11/05 04:21:42;;;;;;;3.20;1.90;;;;;;;17.38;61.08;98182.30;108225;1254;59493;-67
2023/11/05 04:24:08;;;;;;;2.90;1.80;;;;;;;17.26;61.14;98187.50;108193;1253;59737;-66
2023/11/05 04:26:35;;;;;;;3.80;2.20;;;;;;;17.02;61.63;98192.25;108148;1254;59717;-66
2023/11/05 04:29:01;;;;;;;2.20;2.00;;;;;;;16.83;62.38;98201.39;108171;1256;59658;-67
2023/11/05 04:31:28;;;;;;;2.10;1.60;;;;;;;17.19;61.46;98200.73;108179;1252;59064;-65
2023/11/05 04:33:55;;;;;;;2.50;2.00;;;;;;;17.14;61.24;98210.05;108165;1254;59388;-66
2023/11/05 04:36:21;;;;;;;3.00;1.70;;;;;;;17.06;61.43;98220.19;108234;1252;59992;-67
2023/11/05 04:38:48;;;;;;;2.10;1.70;;;;;;;17.02;61.45;98238.84;108216;1256;59534;-67
2023/11/05 04:41:20;;;;;;;3.50;2.10;;;;;;;17.01;61.30;98254.94;108222;1254;59618;-65
2023/11/05 04:43:47;;;;;;;4.70;1.80;;;;;;;16.79;62.00;98264.55;108262;1254;70096;-66
2023/11/05 04:46:14;;;;;;;2.40;2.00;;;;;;;17.04;61.33;98256.98;108241;1254;72706;-67
2023/11/05 04:48:40;;;;;;;3.40;1.50;;;;;;;17.36;60.63;98246.52;108240;1254;60573;-67
2023/11/05 04:51:11;;;;;;;4.20;1.40;;;;;;;17.55;59.87;98248.59;108215;1254;60729;-66
2023/11/05 04:53:38;;;;;;;3.30;1.70;;;;;;;17.49;59.81;98255.05;108243;1254;73836;-67
2023/11/05 04:56:05;;;;;;;2.30;1.60;;;;;;;17.55;59.71;98261.16;108199;1253;70325;-67
2023/11/05 04:58:31;;;;;;;4.50;1.80;;;;;;;17.59;59.27;98263.44;108195;1254;71508;-68
2023/11/05 05:00:58;;;;;;;2.00;1.80;;;;;;;17.54;59.48;98263.00;108206;1252;60356;-67
2023/11/05 05:03:24;;;;;;;2.00;1.60;;;;;;;17.70;59.06;98260.78;108062;1254;59413;-67
2023/11/05 05:05:51;;;;;;;1.90;1.70;;;;;;;17.64;59.07;98261.17;108215;1253;73565;-66
2023/11/05 05:08:18;;;;;;;1.40;1.30;;;;;;;17.51;59.30;98264.40;108172;1254;70281;-68
2023/11/05 05:10:44;;;;;;;2.00;1.70;;;;;;;17.46;59.25;98265.90;108247;1256;72684;-68
2023/11/05 05:13:11;;;;;;;1.40;1.30;;;;;;;17.55;59.18;98272.23;108027;1254;60009;-67
2023/11/05 05:15:38;;;;;;;2.40;1.10;;;;;;;17.54;58.85;98283.59;108195;1254;60411;-69
2023/11/05 05:18:04;;;;;;;3.30;2.00;;;;;;;17.51;58.82;98300.28;108236;1254;71479;-66
2023/11/05 05:20:31;;;;;;;3.60;2.10;;;;;;;17.74;58.51;98296.10;108282;1255;70120;-68
2023/11/05 05:22:58;;;;;;;6.90;3.20;;;;;;;17.98;57.94;98301.41;108251;1256;72408;-67
2023/11/05 05:25:24;;;;;;;6.60;3.10;;;;;;;17.99;57.94;98314.28;108235;1254;60300;-67
2023/11/05 05:27:51;;;;;;;5.50;3.10;;;;;;;18.02;57.89;98325.94;108243;1254;60344;-66
2023/11/05 05:30:18;;;;;;;6.60;3.30;;;;;;;18.09;57.65;98336.58;108198;1254;60280;-68
2023/11/05 05:32:45;;;;;;;4.60;2.50;;;;;;;18.24;57.34;98350.20;108240;1254;70345;-68
2023/11/05 05:35:12;;;;;;;4.30;2.30;;;;;;;18.27;57.27;98352.63;108243;1254;72670;-66
2023/11/05 05:37:39;;;;;;;6.70;2.80;;;;;;;18.48;56.77;98352.02;108197;1256;60721;-67
2023/11/05 05:40:06;;;;;;;2.90;2.10;;;;;;;18.56;56.55;98345.31;108218;1253;60326;-67
2023/11/05 05:42:33;;;;;;;3.90;1.80;;;;;;;18.39;56.64;98353.97;108248;1254;73902;-67
2023/11/05 05:44:59;;;;;;;2.90;1.90;;;;;;;18.59;56.14;98350.41;108240;1254;70305;-67
2023/11/05 05:47:27;;;;;;;5.50;1.70;;;;;;;18.57;56.13;98363.54;108270;1256;72794;-67
2023/11/05 05:49:53;;;;;;;3.00;1.40;;;;;;;18.54;56.23;98366.77;108026;1253;62013;-67
2023/11/05 05:52:20;;;;;;;3.10;1.60;;;;;;;18.60;56.01;98374.69;108244;1254;60281;-67
2023/11/05 05:54:47;;;;;;;2.40;1.50;;;;;;;18.70;55.60;98374.21;108059;1254;72842;-67
2023/11/05 05:57:13;;;;;;;4.90;1.40;;;;;;;18.62;55.87;98377.22;108235;1254;60303;-67
2023/11/05 05:59:40;;;;;;;2.70;1.40;;;;;;;18.87;55.33;98375.40;108198;1254;72452;-66
2023/11/05 06:02:07;;;;;;;2.00;1.10;;;;;;;18.97;54.87;98363.73;108278;1256;61762;-68
2023/11/05 06:04:38;;;;;;;3.10;1.10;;;;;;;19.00;54.78;98358.66;108330;1252;60460;-67
2023/11/05 06:07:05;;;;;;;2.70;1.30;;;;;;;18.95;54.51;98365.33;108242;1252;73926;-67
2023/11/05 06:09:32;;;;;;;3.00;1.60;;;;;;;18.82;54.74;98372.30;108058;1254;60292;-66
2023/11/05 06:11:59;;;;;;;3.90;1.10;;;;;;;18.75;54.96;98385.09;108241;1252;71792;-67
2023/11/05 06:14:26;;;;;;;3.30;1.40;;;;;;;18.80;54.55;98397.64;108239;1254;61980;-67
2023/11/05 06:17:07;;;;;;;2.70;1.70;;;;;;;18.81;54.65;98404.13;108138;1257;60396;-69
2023/11/05 06:19:33;;;;;;;2.30;1.70;;;;;;;18.77;54.91;98406.23;108310;1256;60282;-68
2023/11/05 06:22:00;;;;;;;1.80;1.50;;;;;;;18.77;54.97;98412.47;108283;1254;69085;-67
2023/11/05 06:24:26;;;;;;;4.30;1.20;;;;;;;18.92;54.44;98414.68;108253;1256;72755;-67
2023/11/05 06:26:53;;;;;;;3.30;1.30;;;;;;;18.78;54.23;98428.17;108198;1256;62290;-67
2023/11/05 06:29:20;;;;;;;2.10;1.20;;;;;;;18.81;54.03;98425.52;108263;1254;60421;-67
2023/11/05 06:31:47;;;;;;;1.20;1.10;;;;;;;18.94;53.62;98430.40;108281;1254;73613;-67
2023/11/05 06:34:13;;;;;;;2.00;1.30;;;;;;;18.76;53.78;98437.13;108078;1254;70181;-67
2023/11/05 06:37:00;;;;;;;3.00;1.30;;;;;;;18.62;54.46;98441.30;108249;1254;72335;-68
2023/11/05 06:39:30;;;;;;;2.30;1.30;;;;;;;18.74;54.50;98450.39;108220;1256;60843;-66
2023/11/05 06:41:57;;;;;;;2.50;1.20;;;;;;;18.77;54.59;98456.96;108279;1256;60447;-68
2023/11/05 06:44:24;;;;;;;3.40;1.20;;;;;;;18.67;54.75;98463.88;108292;1254;73814;-65
2023/11/05 06:46:50;;;;;;;2.60;1.40;;;;;;;18.74;54.38;98464.73;108284;1254;69520;-67
2023/11/05 06:49:20;;;;;;;3.20;1.60;;;;;;;18.69;54.48;98471.36;108275;1254;72375;-67
2023/11/05 06:51:47;;;;;;;2.70;1.20;;;;;;;18.66;54.40;98475.55;108231;1254;61965;-64
2023/11/05 06:54:13;;;;;;;5.90;1.60;;;;;;;18.79;53.88;98483.00;108279;1254;60357;-71
2023/11/05 06:56:40;;;;;;;3.70;1.70;;;;;;;18.92;53.72;98492.66;108300;1254;60309;-68
2023/11/05 06:59:07;;;;;;;2.70;1.20;;;;;;;19.12;54.06;98501.31;108260;1254;60396;-66
2023/11/05 07:01:34;;;;;;;3.90;1.30;;;;;;;19.70;54.61;98505.03;108239;1256;72693;-67
2023/11/05 07:04:02;;;;;;;2.90;1.60;;;;;;;20.34;54.43;98509.16;108332;1252;61881;-67
2023/11/05 07:06:29;;;;;;;3.40;1.20;;;;;;;21.27;53.35;98504.29;108115;1254;60514;-68
2023/11/05 07:08:56;;;;;;;2.20;1.20;;;;;;;22.31;51.94;98510.15;108268;1256;74282;-68
2023/11/05 07:11:22;;;;;;;4.70;1.10;;;;;;;23.33;48.02;98516.27;108248;1256;70123;-67
2023/11/05 07:13:49;;;;;;;4.10;0.80;;;;;;;23.78;45.24;98518.76;108164;1256;72982;-67
2023/11/05 07:16:16;;;;;;;4.20;1.00;;;;;;;24.02;44.12;98525.23;108118;1252;61832;-67
2023/11/05 07:18:42;;;;;;;2.70;1.10;;;;;;;24.08;42.75;98519.75;108124;1254;60185;-68
2023/11/05 07:21:14;;;;;;;1.20;0.80;;;;;;;24.08;42.12;98517.92;108135;1254;73381;-67
2023/11/05 07:23:41;;;;;;;1.70;0.90;;;;;;;23.69;41.84;98516.42;108134;1254;68469;-67
2023/11/05 07:26:08;;;;;;;4.90;1.00;;;;;;;23.72;42.30;98515.86;108027;1259;72757;-68
2023/11/05 07:28:35;;;;;;;1.70;1.30;;;;;;;23.74;42.41;98510.07;108200;1254;61748;-68
2023/11/05 07:31:01;;;;;;;1.30;1.00;;;;;;;24.10;41.91;98513.37;108154;1255;60313;-68
2023/11/05 07:33:28;;;;;;;1.60;0.80;;;;;;;24.52;41.42;98515.02;108178;1254;73639;-68
2023/11/05 07:35:55;;;;;;;1.60;0.80;;;;;;;25.06;40.27;98521.23;108204;1254;70248;-70
2023/11/05 07:38:26;;;;;;;3.70;1.10;;;;;;;25.21;39.84;98511.23;108173;1254;60312;-68
2023/11/05 07:40:52;;;;;;;;;;;;;;;25.29;39.24;98505.48;108162;1256;60794;-68
2023/11/05 07:43:19;;;;;;;1.50;0.70;;;;;;;25.15;38.52;98510.59;108201;1256;60387;-68
2023/11/05 07:45:45;;;;;;;3.40;1.00;;;;;;;25.01;38.83;98515.86;108161;1256;60299;-68
2023/11/05 07:48:12;;;;;;;1.90;1.00;;;;;;;24.89;38.70;98513.73;108155;1254;70093;-67
2023/11/05 07:50:39;;;;;;;1.00;0.70;;;;;;;24.59;38.57;98511.13;108128;1253;72938;-68
2023/11/05 07:53:05;;;;;;;0.90;0.80;;;;;;;24.18;39.07;98507.65;108137;1254;60431;-67
2023/11/05 07:55:32;;;;;;;1.60;0.80;;;;;;;24.57;38.89;98505.42;108151;1256;60375;-68
2023/11/05 07:57:58;;;;;;;1.90;0.80;;;;;;;25.14;38.09;98497.09;108155;1254;60404;-68
2023/11/05 08:00:25;;;;;;;2.50;0.60;;;;;;;25.69;37.14;98494.30;108162;1256;70365;-68
2023/11/05 08:02:51;;;;;;;2.20;0.80;;;;;;;26.46;35.77;98493.73;108256;1254;60444;-68
2023/11/05 08:05:18;;;;;;;2.00;0.70;;;;;;;26.87;34.76;98498.34;108204;1254;62233;-68
2023/11/05 08:07:45;;;;;;;3.70;0.70;;;;;;;27.24;33.93;98504.25;108267;1256;59224;-68
2023/11/05 08:10:13;;;;;;;2.00;0.70;;;;;;;27.48;33.55;98513.85;108375;1253;73696;-68
2023/11/05 08:12:40;;;;;;;0.80;0.60;;;;;;;27.19;32.96;98525.31;108248;1253;70380;-69
2023/11/05 08:15:09;;;;;;;1.40;0.90;;;;;;;27.23;33.73;98528.16;108290;1256;72471;-68
2023/11/05 08:17:40;;;;;;;2.80;1.00;;;;;;;27.78;33.26;98533.86;108264;1256;60289;-69
2023/11/05 08:20:11;;;;;;;1.50;0.90;;;;;;;28.24;33.05;98526.35;108243;1256;60597;-68
2023/11/05 08:22:41;;;;;;;3.30;0.80;;;;;;;28.22;32.14;98524.98;108275;1255;72478;-69
2023/11/05 08:25:10;;;;;;;0.90;0.60;;;;;;;28.24;31.81;98529.89;108300;1255;70007;-68
2023/11/05 08:27:39;;;;;;;1.00;0.60;;;;;;;28.17;31.72;98535.27;108261;1254;72530;-68
2023/11/05 08:30:07;;;;;;;3.70;0.90;;;;;;;27.91;32.03;98542.10;108246;1256;60524;-68
2023/11/05 08:32:33;;;;;;;1.50;0.90;;;;;;;28.06;32.23;98540.89;108278;1252;60310;-68
2023/11/05 08:35:00;;;;;;;1.50;0.60;;;;;;;28.39;31.79;98534.08;108212;1254;59302;-68
2023/11/05 08:37:26;;;;;;;2.70;0.90;;;;;;;28.80;31.21;98533.27;108267;1253;70227;-68
2023/11/05 08:39:54;;;;;;;1.70;0.50;;;;;;;29.31;30.86;98536.84;108269;1253;72426;-68
2023/11/05 08:42:21;;;;;;;1.80;0.90;;;;;;;29.61;29.80;98530.63;108281;1254;60435;-68
2023/11/05 08:44:48;;;;;;;1.30;0.70;;;;;;;29.74;29.24;98523.75;108240;1252;60260;-69
2023/11/05 08:47:15;;;;;;;1.00;0.50;;;;;;;29.99;29.35;98520.77;108280;1254;73887;-68
2023/11/05 08:49:42;;;;;;;1.70;0.70;;;;;;;30.38;29.30;98519.22;108265;1253;70413;-69
2023/11/05 08:52:08;;;;;;;1.90;0.60;;;;;;;31.03;28.06;98515.89;108184;1256;60341;-68
2023/11/05 08:54:35;;;;;;;2.40;0.80;;;;;;;31.63;27.18;98514.02;108083;1254;60980;-68
2023/11/05 08:57:01;;;;;;;1.40;0.80;;;;;;;32.09;25.90;98517.52;108194;1254;60280;-68
2023/11/05 08:59:29;;;;;;;3.10;0.90;;;;;;;32.10;25.97;98519.18;108160;1256;73680;-69
2023/11/05 09:01:56;;;;;;;1.20;0.90;;;;;;;32.31;25.75;98532.23;108213;1254;69975;-68
2023/11/05 09:04:23;;;;;;;9.30;1.30;;;;;;;32.97;25.29;98532.27;108180;1256;72651;-69
2023/11/05 09:06:50;;;;;;;2.30;0.90;;;;;;;33.67;24.91;98530.95;108091;1253;60309;-69
2023/11/05 09:09:16;;;;;;;2.90;0.60;;;;;;;34.18;24.52;98528.70;108114;1254;60508;-69
2023/11/05 09:11:43;;;;;;;2.50;0.80;;;;;;;34.31;24.14;98533.65;108164;1254;65480;-67
2023/11/05 09:14:09;;;;;;;4.40;0.80;;;;;;;33.90;24.08;98542.61;108162;1253;59099;-67
2023/11/05 09:16:36;;;;;;;4.00;1.00;;;;;;;32.84;24.05;98545.34;108278;1254;60184;-67
2023/11/05 09:19:04;;;;;;;2.00;1.30;;;;;;;32.15;25.00;98546.44;108043;1254;60486;-69
2023/11/05 09:21:31;;;;;;;1.10;0.80;;;;;;;32.10;25.58;98541.20;108314;1252;60482;-69
2023/11/05 09:24:00;;;;;;;3.10;1.10;;;;;;;32.35;25.29;98537.61;108240;1254;75071;-69
2023/11/05 09:26:26;;;;;;;1.30;0.70;;;;;;;32.30;25.37;98536.70;108082;1253;61551;-70
2023/11/05 09:28:53;;;;;;;2.40;0.90;;;;;;;32.30;25.01;98544.27;108160;1254;72745;-70
2023/11/05 09:31:21;;;;;;;1.40;0.70;;;;;;;32.00;25.03;98546.32;108160;1254;60081;-69
2023/11/05 09:33:47;;;;;;;2.50;0.80;;;;;;;31.16;25.55;98546.70;108175;1253;60335;-69
2023/11/05 09:36:14;;;;;;;1.50;0.90;;;;;;;30.40;26.39;98534.21;108011;1255;60274;-69
2023/11/05 09:38:40;;;;;;;1.80;0.80;;;;;;;30.28;26.71;98530.05;108249;1256;60497;-70
2023/11/05 09:41:08;;;;;;;3.10;0.90;;;;;;;29.92;27.77;98539.13;108178;1254;60424;-70
2023/11/05 09:43:35;;;;;;;2.70;1.70;;;;;;;30.43;27.77;98545.08;108225;1254;60354;-70
2023/11/05 09:46:02;;;;;;;1.00;0.60;;;;;;;31.19;25.93;98547.94;108283;1253;60201;-70
2023/11/05 09:48:29;;;;;;;1.30;0.70;;;;;;;31.65;25.27;98547.92;108220;1256;73988;-69
2023/11/05 09:50:56;;;;;;;2.40;1.30;;;;;;;31.74;25.57;98551.96;108094;1254;70088;-70
2023/11/05 09:53:26;;;;;;;3.70;0.80;;;;;;;32.28;25.06;98548.59;108190;1254;73709;-69
2023/11/05 09:55:52;;;;;;;1.80;1.00;;;;;;;32.91;24.58;98542.41;107951;1254;60324;-69
2023/11/05 09:58:19;;;;;;;2.10;1.00;;;;;;;33.59;23.82;98544.15;107944;1253;60510;-69
2023/11/05 10:00:48;;;;;;;1.50;1.10;;;;;;;34.00;23.42;98541.89;108199;1254;73634;-69
2023/11/05 10:03:14;;;;;;;2.60;1.10;;;;;;;34.65;23.03;98536.44;108172;1256;62026;-69
2023/11/05 10:05:43;;;;;;;7.90;3.10;;;;;;;34.87;22.07;98535.83;108236;1253;64207;-69
2023/11/05 10:08:10;;;;;;;3.20;1.80;;;;;;;34.07;22.29;98535.27;108397;1253;60334;-69
2023/11/05 10:10:38;;;;;;;3.30;1.70;;;;;;;32.67;23.09;98534.05;108139;1256;60592;-69
2023/11/05 10:13:05;;;;;;;5.00;2.80;;;;;;;31.04;24.83;98537.82;108251;1254;75043;-68
2023/11/05 10:15:42;;;;;;;5.40;2.30;;;;;;;30.26;26.04;98536.87;108349;1254;70650;-69
2023/11/05 10:18:15;;;;;;;3.40;1.80;;;;;;;29.96;26.52;98532.86;108279;1254;71531;-69
2023/11/05 10:20:52;;;;;;;4.10;2.10;;;;;;;30.19;26.56;98524.85;108246;1254;60440;-69
2023/11/05 10:23:19;;;;;;;3.80;1.70;;;;;;;30.77;25.98;98521.82;108306;1254;60280;-69
2023/11/05 10:25:46;;;;;;;4.80;3.00;;;;;;;30.82;26.17;98518.27;108252;1254;73814;-68
2023/11/05 10:28:13;;;;;;;6.60;2.20;;;;;;;30.97;26.40;98509.93;108284;1255;70149;-69
2023/11/05 10:30:45;;;;;;;5.20;2.40;;;;;;;31.55;26.02;98503.30;108218;1254;72680;-71
2023/11/05 10:33:12;;;;;;;5.30;2.80;;;;;;;31.82;25.35;98500.19;108264;1252;61412;-69
2023/11/05 10:35:39;;;;;;;4.50;2.10;;;;;;;31.93;25.29;98498.39;108218;1256;60787;-69
2023/11/05 10:38:08;;;;;;;7.50;2.20;;;;;;;32.28;24.65;98490.59;108038;1254;73720;-69
2023/11/05 10:40:35;;;;;;;5.80;2.00;;;;;;;32.49;23.82;98486.48;108242;1254;70741;-70
2023/11/05 10:43:02;;;;;;;5.40;2.20;;;;;;;32.58;23.91;98482.05;108025;1254;73098;-70
2023/11/05 10:45:29;;;;;;;6.20;2.00;;;;;;;32.62;23.39;98488.04;108265;1252;60337;-68
2023/11/05 10:47:55;;;;;;;6.10;1.90;;;;;;;32.52;23.51;98490.58;108313;1253;59375;-69
2023/11/05 10:50:26;;;;;;;6.30;2.50;;;;;;;32.42;23.62;98498.42;108218;1253;59078;-69
2023/11/05 10:52:55;;;;;;;8.30;2.30;;;;;;;32.43;23.48;98500.52;108268;1254;69179;-69
2023/11/05 10:55:33;;;;;;;4.70;1.80;;;;;;;32.30;23.69;98499.82;108287;1253;72448;-69
2023/11/05 10:58:06;;;;;;;4.20;1.60;;;;;;;32.26;24.03;98495.11;108275;1254;60310;-69
2023/11/05 11:00:57;;;;;;;3.20;1.90;;;;;;;32.44;23.72;98484.73;108258;1254;60425;-70
2023/11/05 11:03:25;;;;;;;6.80;1.70;;;;;;;32.24;23.66;98474.48;108264;1256;72648;-69
2023/11/05 11:05:55;;;;;;;5.80;2.70;;;;;;;32.22;23.67;98475.07;108220;1254;70392;-69
2023/11/05 11:08:23;;;;;;;4.30;1.90;;;;;;;32.28;23.87;98474.79;108262;1254;71242;-68
2023/11/05 11:10:50;;;;;;;4.50;1.80;;;;;;;32.65;23.64;98467.83;108277;1254;60398;-70
2023/11/05 11:13:28;;;;;;;6.00;2.10;;;;;;;32.80;23.36;98462.85;107953;1254;60399;-68
2023/11/05 11:16:00;;;;;;;3.40;1.90;;;;;;;32.69;23.32;98469.36;108256;1254;73581;-68
2023/11/05 11:18:27;;;;;;;2.80;1.40;;;;;;;32.25;24.01;98483.15;108256;1254;70126;-69
2023/11/05 11:20:56;;;;;;;3.30;1.70;;;;;;;31.98;23.80;98486.55;108226;1253;72394;-69
2023/11/05 11:23:22;;;;;;;4.60;1.50;;;;;;;31.77;24.10;98487.33;108268;1253;60511;-69
2023/11/05 11:25:59;;;;;;;3.60;1.10;;;;;;;31.53;23.99;98486.86;108242;1252;60328;-69
2023/11/05 11:28:26;;;;;;;1.50;1.10;;;;;;;30.77;24.80;98478.95;108222;1252;74416;-69